Главная страница
METAR-TAF:

METAR-TAF

Аэропорты :

Penn Valley Airport

Selinsgrove, Пенсильвания, США

широта: 40-49-09N, долгота: 076-51-58W, высота над уровнем моря: 137 м

Текущие метеонаблюдения

Эта сводка был подготовлена 20 минут назад, в 12:53 UTC
Штиль
Температура 1°C
Влажность 86%
Давление 1028 hPa
Видимость: 11.3 км
Сплошная облачность на высоте 4400 фута

METAR: KSEG 181253Z AUTO 00000KT 7SM OVC044 01/M01 A3035 RMK AO2 SLP282 T00061006

Время: 08:13 (13:13 UTC)


TAF: отсутствует

Метеонаблюдения и прогнозы для более 4000 аэропортов (сводки METAR и TAF).

Имеющиеся станции представлены на карте желтыми и красными точками.

Чтобы увидеть название станции, наведите на нее мышь.

Затем щелкните, чтобы увидеть метеонаблюдения и метеопрогнозы.

Управление картой: чтобы увеличить масштаб, щелкните зеленые кнопки с черным крестиком; чтобы уменьшить масштаб, щелкните зеленую кнопку с тире; для просмотра соседних карт щелкайте зеленые стрелки.


METAR-TAF: